HKE824 VHHH-ROAH
Flight info
| Callsign | HKE824 |
|---|---|
| Flight time | N/A |
| Altitude | 35000 |
| Route | DALOL V631 ENVAR M750 KUDOS R595 MJC Y57 VELNO |
| Aircraft | A321/M-SDE3FGHIRWY/LB1 |
Departure
| Time | N/A |
|---|---|
| Airport | Hong Kong International Airport (VHHH) |
Arrival
| Time | 2026-04-18 10:32 |
|---|---|
| Airport | Naha International Airport (ROAH) |
| Time | Latitude | Longitude | Altitude | Speed | Heading |
|---|---|---|---|---|---|
| 2026-04-18 09:18 | 22.66689 | 118.68516 | 33907 ft | 527 kts | 57° |
| 2026-04-18 09:18 | 22.68612 | 118.71897 | 33915 ft | 526 kts | 57° |
| 2026-04-18 09:19 | 22.72442 | 118.78649 | 33918 ft | 526 kts | 57° |
| 2026-04-18 09:19 | 22.76277 | 118.85411 | 33918 ft | 526 kts | 57° |
| 2026-04-18 09:20 | 22.80109 | 118.92171 | 33933 ft | 527 kts | 57° |
| 2026-04-18 09:20 | 22.83924 | 118.98902 | 33919 ft | 528 kts | 57° |
| 2026-04-18 09:21 | 22.87763 | 119.05691 | 33923 ft | 527 kts | 57° |
| 2026-04-18 09:21 | 22.91588 | 119.12483 | 33922 ft | 527 kts | 57° |
| 2026-04-18 09:22 | 22.95413 | 119.19273 | 33921 ft | 527 kts | 57° |
| 2026-04-18 09:22 | 22.98589 | 119.24919 | 33911 ft | 527 kts | 57° |
| 2026-04-18 09:23 | 23.02407 | 119.31720 | 33919 ft | 528 kts | 57° |
| 2026-04-18 09:23 | 23.06231 | 119.38538 | 33919 ft | 529 kts | 57° |
| 2026-04-18 09:24 | 23.10061 | 119.45366 | 33921 ft | 529 kts | 57° |
| 2026-04-18 09:24 | 23.13886 | 119.52190 | 33921 ft | 529 kts | 57° |
| 2026-04-18 09:25 | 23.17702 | 119.59011 | 33920 ft | 527 kts | 57° |
| 2026-04-18 09:25 | 23.21509 | 119.65825 | 33943 ft | 527 kts | 57° |
| 2026-04-18 09:26 | 23.25317 | 119.72659 | 33923 ft | 529 kts | 57° |
| 2026-04-18 09:26 | 23.29131 | 119.79496 | 33921 ft | 529 kts | 57° |
| 2026-04-18 09:27 | 23.32941 | 119.86342 | 33922 ft | 528 kts | 57° |
| 2026-04-18 09:27 | 23.37024 | 119.92956 | 33922 ft | 524 kts | 46° |
| 2026-04-18 09:28 | 23.42172 | 119.98452 | 33946 ft | 522 kts | 40° |
| 2026-04-18 09:28 | 23.47462 | 120.03887 | 33927 ft | 523 kts | 40° |
| 2026-04-18 09:29 | 23.52741 | 120.09351 | 33928 ft | 523 kts | 40° |
| 2026-04-18 09:29 | 23.58022 | 120.14810 | 33930 ft | 523 kts | 40° |
| 2026-04-18 09:30 | 23.63304 | 120.20265 | 33934 ft | 523 kts | 40° |
| 2026-04-18 09:30 | 23.68591 | 120.25732 | 33929 ft | 524 kts | 40° |
| 2026-04-18 09:31 | 23.73887 | 120.31211 | 33932 ft | 524 kts | 40° |
| 2026-04-18 09:31 | 23.79175 | 120.36689 | 33937 ft | 524 kts | 40° |
| 2026-04-18 09:32 | 23.84463 | 120.42180 | 33936 ft | 524 kts | 40° |
| 2026-04-18 09:32 | 23.89738 | 120.47666 | 33937 ft | 524 kts | 40° |
| 2026-04-18 09:33 | 23.95014 | 120.53175 | 33947 ft | 524 kts | 40° |
| 2026-04-18 09:33 | 24.00265 | 120.58715 | 33946 ft | 525 kts | 41° |
| 2026-04-18 09:34 | 24.05507 | 120.64274 | 33956 ft | 525 kts | 41° |
| 2026-04-18 09:34 | 24.10750 | 120.69836 | 33959 ft | 525 kts | 41° |
| 2026-04-18 09:35 | 24.16009 | 120.75397 | 33953 ft | 526 kts | 40° |
| 2026-04-18 09:35 | 24.21270 | 120.80968 | 33953 ft | 526 kts | 41° |
| 2026-04-18 09:36 | 24.26498 | 120.86518 | 33957 ft | 526 kts | 41° |
| 2026-04-18 09:36 | 24.31787 | 120.92136 | 33979 ft | 526 kts | 41° |
| 2026-04-18 09:37 | 24.37013 | 120.97689 | 33970 ft | 527 kts | 41° |
| 2026-04-18 09:37 | 24.42171 | 121.03395 | 33975 ft | 528 kts | 49° |
| 2026-04-18 09:38 | 24.46762 | 121.09708 | 33976 ft | 529 kts | 50° |
| 2026-04-18 09:38 | 24.51354 | 121.16037 | 33973 ft | 530 kts | 50° |
| 2026-04-18 09:39 | 24.55947 | 121.22378 | 33962 ft | 530 kts | 49° |
| 2026-04-18 09:39 | 24.60536 | 121.28729 | 33976 ft | 530 kts | 49° |
| 2026-04-18 09:40 | 24.65126 | 121.35068 | 33980 ft | 529 kts | 50° |
| 2026-04-18 09:40 | 24.69716 | 121.41414 | 33969 ft | 530 kts | 49° |
| 2026-04-18 09:41 | 24.74286 | 121.47761 | 33962 ft | 530 kts | 50° |
| 2026-04-18 09:41 | 24.78857 | 121.54125 | 33933 ft | 529 kts | 50° |
| 2026-04-18 09:42 | 24.81135 | 121.57303 | 34058 ft | 528 kts | 50° |
| 2026-04-18 09:42 | 24.83407 | 121.60470 | 34290 ft | 526 kts | 50° |
| 2026-04-18 09:42 | 24.85680 | 121.63633 | 34504 ft | 527 kts | 50° |
| 2026-04-18 09:42 | 24.87955 | 121.66797 | 34685 ft | 527 kts | 50° |
| 2026-04-18 09:43 | 24.90233 | 121.69958 | 34860 ft | 528 kts | 49° |
| 2026-04-18 09:43 | 24.92567 | 121.73077 | 34930 ft | 527 kts | 47° |
| 2026-04-18 09:43 | 24.97385 | 121.79171 | 34943 ft | 528 kts | 46° |
| 2026-04-18 09:44 | 25.02226 | 121.85175 | 34942 ft | 527 kts | 46° |
| 2026-04-18 09:44 | 25.07034 | 121.91303 | 34949 ft | 529 kts | 51° |
| 2026-04-18 09:45 | 25.09057 | 121.94692 | 34950 ft | 530 kts | 62° |
| 2026-04-18 09:45 | 25.10588 | 121.98389 | 34967 ft | 530 kts | 71° |
| 2026-04-18 09:45 | 25.12145 | 122.06289 | 34961 ft | 525 kts | 90° |
| 2026-04-18 09:46 | 25.11855 | 122.14260 | 34959 ft | 520 kts | 99° |
| 2026-04-18 09:46 | 25.11180 | 122.22207 | 34961 ft | 520 kts | 99° |
| 2026-04-18 09:47 | 25.10501 | 122.30159 | 34962 ft | 521 kts | 100° |
| 2026-04-18 09:47 | 25.09767 | 122.38115 | 34959 ft | 520 kts | 100° |
| 2026-04-18 09:48 | 25.08985 | 122.45997 | 34963 ft | 520 kts | 101° |
| 2026-04-18 09:48 | 25.08194 | 122.53933 | 34959 ft | 521 kts | 101° |
| 2026-04-18 09:49 | 25.07425 | 122.61878 | 34963 ft | 521 kts | 100° |
| 2026-04-18 09:49 | 25.06666 | 122.69824 | 34957 ft | 521 kts | 100° |
| 2026-04-18 09:50 | 25.05884 | 122.77769 | 34965 ft | 521 kts | 100° |
| 2026-04-18 09:50 | 25.05095 | 122.85702 | 34968 ft | 521 kts | 100° |
| 2026-04-18 09:51 | 25.04300 | 122.93641 | 34970 ft | 520 kts | 100° |
| 2026-04-18 09:51 | 25.03498 | 123.01571 | 34971 ft | 520 kts | 100° |
| 2026-04-18 09:52 | 25.02709 | 123.09498 | 34968 ft | 520 kts | 100° |
| 2026-04-18 09:52 | 25.01920 | 123.17421 | 34957 ft | 520 kts | 100° |
| 2026-04-18 09:53 | 25.01119 | 123.25338 | 34965 ft | 519 kts | 100° |
| 2026-04-18 09:53 | 25.00307 | 123.33261 | 34965 ft | 519 kts | 100° |
| 2026-04-18 09:54 | 24.99497 | 123.41175 | 34966 ft | 519 kts | 100° |
| 2026-04-18 09:54 | 24.98678 | 123.49097 | 34967 ft | 519 kts | 100° |
| 2026-04-18 09:55 | 24.97862 | 123.56954 | 34966 ft | 519 kts | 101° |
| 2026-04-18 09:55 | 24.97031 | 123.64910 | 34967 ft | 519 kts | 101° |
| 2026-04-18 09:56 | 24.96210 | 123.72760 | 34954 ft | 519 kts | 101° |
| 2026-04-18 09:56 | 24.95378 | 123.80711 | 34977 ft | 519 kts | 101° |
| 2026-04-18 09:57 | 24.94544 | 123.88564 | 34971 ft | 519 kts | 101° |
| 2026-04-18 09:57 | 24.93698 | 123.96465 | 34950 ft | 519 kts | 101° |
| 2026-04-18 09:58 | 24.92846 | 124.04368 | 34948 ft | 519 kts | 101° |
| 2026-04-18 09:58 | 24.91927 | 124.12267 | 34955 ft | 519 kts | 102° |
| 2026-04-18 09:59 | 24.90976 | 124.20158 | 34958 ft | 520 kts | 102° |
| 2026-04-18 10:00 | 24.89566 | 124.31987 | 34964 ft | 519 kts | 102° |
| 2026-04-18 10:00 | 24.88642 | 124.39865 | 34959 ft | 518 kts | 102° |
| 2026-04-18 10:01 | 24.87720 | 124.47740 | 34939 ft | 518 kts | 102° |
| 2026-04-18 10:01 | 24.86785 | 124.55548 | 34944 ft | 517 kts | 102° |
| 2026-04-18 10:02 | 24.85831 | 124.63399 | 34939 ft | 516 kts | 102° |
| 2026-04-18 10:02 | 24.84881 | 124.71228 | 34964 ft | 516 kts | 102° |
| 2026-04-18 10:03 | 24.83939 | 124.79055 | 34948 ft | 515 kts | 102° |
| 2026-04-18 10:03 | 24.82987 | 124.86859 | 34942 ft | 514 kts | 102° |
| 2026-04-18 10:04 | 24.82029 | 124.94659 | 34929 ft | 514 kts | 102° |
| 2026-04-18 10:04 | 24.81069 | 125.02452 | 34915 ft | 513 kts | 102° |
| 2026-04-18 10:05 | 24.80109 | 125.10240 | 34916 ft | 513 kts | 102° |
| 2026-04-18 10:05 | 24.79307 | 125.16700 | 34919 ft | 512 kts | 102° |
| 2026-04-18 10:06 | 24.78660 | 125.24513 | 34915 ft | 517 kts | 90° |
| 2026-04-18 10:06 | 24.79315 | 125.29715 | 34909 ft | 521 kts | 77° |
| 2026-04-18 10:06 | 24.80456 | 125.33495 | 34909 ft | 522 kts | 66° |
| 2026-04-18 10:07 | 24.84044 | 125.40426 | 34918 ft | 522 kts | 57° |
| 2026-04-18 10:07 | 24.87889 | 125.47211 | 34925 ft | 523 kts | 57° |
| 2026-04-18 10:08 | 24.91739 | 125.54017 | 34929 ft | 523 kts | 57° |
| 2026-04-18 10:08 | 24.95585 | 125.60825 | 34947 ft | 524 kts | 57° |
| 2026-04-18 10:09 | 24.98778 | 125.66494 | 34974 ft | 524 kts | 57° |
| 2026-04-18 10:09 | 25.02620 | 125.73327 | 34968 ft | 524 kts | 57° |
| 2026-04-18 10:09 | 25.04542 | 125.76747 | 34828 ft | 525 kts | 57° |
| 2026-04-18 10:10 | 25.06461 | 125.80165 | 34365 ft | 525 kts | 57° |
| 2026-04-18 10:10 | 25.08399 | 125.83616 | 33606 ft | 529 kts | 57° |
| 2026-04-18 10:10 | 25.10331 | 125.87055 | 33017 ft | 528 kts | 57° |
| 2026-04-18 10:10 | 25.12262 | 125.90491 | 32439 ft | 526 kts | 57° |
| 2026-04-18 10:11 | 25.14194 | 125.93927 | 31840 ft | 526 kts | 57° |
| 2026-04-18 10:11 | 25.16116 | 125.97353 | 31250 ft | 525 kts | 57° |
| 2026-04-18 10:11 | 25.18027 | 126.00763 | 30871 ft | 519 kts | 57° |
| 2026-04-18 10:11 | 25.19915 | 126.04139 | 30394 ft | 515 kts | 57° |
| 2026-04-18 10:12 | 25.21778 | 126.07479 | 29598 ft | 506 kts | 57° |
| 2026-04-18 10:12 | 25.23599 | 126.10747 | 28819 ft | 490 kts | 57° |
| 2026-04-18 10:12 | 25.25347 | 126.13883 | 28341 ft | 469 kts | 57° |
| 2026-04-18 10:12 | 25.27024 | 126.16893 | 27813 ft | 452 kts | 57° |
| 2026-04-18 10:13 | 25.28674 | 126.19847 | 27281 ft | 449 kts | 57° |
| 2026-04-18 10:13 | 25.30309 | 126.22772 | 26857 ft | 447 kts | 57° |
| 2026-04-18 10:13 | 25.31922 | 126.25658 | 26384 ft | 447 kts | 57° |
| 2026-04-18 10:13 | 25.33572 | 126.28620 | 25916 ft | 447 kts | 57° |
| 2026-04-18 10:14 | 25.35175 | 126.31506 | 25449 ft | 446 kts | 57° |
| 2026-04-18 10:14 | 25.36798 | 126.34430 | 24984 ft | 446 kts | 57° |
| 2026-04-18 10:14 | 25.38420 | 126.37354 | 24508 ft | 446 kts | 57° |
| 2026-04-18 10:15 | 25.41909 | 126.43635 | 23476 ft | 446 kts | 57° |
| 2026-04-18 10:15 | 25.43528 | 126.46554 | 22934 ft | 445 kts | 57° |
| 2026-04-18 10:15 | 25.45141 | 126.49466 | 22438 ft | 442 kts | 57° |
| 2026-04-18 10:15 | 25.46739 | 126.52354 | 21973 ft | 440 kts | 57° |
| 2026-04-18 10:16 | 25.48328 | 126.55234 | 21579 ft | 435 kts | 57° |
| 2026-04-18 10:16 | 25.49901 | 126.58089 | 21177 ft | 431 kts | 57° |
| 2026-04-18 10:16 | 25.51452 | 126.60912 | 20569 ft | 425 kts | 57° |
| 2026-04-18 10:16 | 25.52952 | 126.63647 | 20102 ft | 405 kts | 57° |
| 2026-04-18 10:17 | 25.54378 | 126.66251 | 19683 ft | 386 kts | 57° |
| 2026-04-18 10:17 | 25.55742 | 126.68743 | 19292 ft | 372 kts | 57° |
| 2026-04-18 10:17 | 25.57086 | 126.71193 | 18863 ft | 372 kts | 57° |
| 2026-04-18 10:17 | 25.58430 | 126.73635 | 18453 ft | 371 kts | 57° |
| 2026-04-18 10:18 | 25.59774 | 126.76076 | 18008 ft | 370 kts | 57° |
| 2026-04-18 10:18 | 25.61090 | 126.78473 | 17591 ft | 368 kts | 57° |
| 2026-04-18 10:18 | 25.62412 | 126.80886 | 17181 ft | 366 kts | 57° |
| 2026-04-18 10:18 | 25.63725 | 126.83292 | 16765 ft | 363 kts | 57° |
| 2026-04-18 10:19 | 25.65026 | 126.85680 | 16373 ft | 361 kts | 57° |
| 2026-04-18 10:19 | 25.66324 | 126.88056 | 15960 ft | 360 kts | 57° |
| 2026-04-18 10:19 | 25.67619 | 126.90425 | 15559 ft | 358 kts | 57° |
| 2026-04-18 10:19 | 25.68905 | 126.92778 | 15158 ft | 356 kts | 57° |
| 2026-04-18 10:20 | 25.69772 | 126.94363 | 14896 ft | 355 kts | 57° |
| 2026-04-18 10:20 | 25.72637 | 126.99607 | 13982 ft | 353 kts | 57° |
| 2026-04-18 10:20 | 25.73871 | 127.01869 | 13582 ft | 352 kts | 57° |
| 2026-04-18 10:21 | 25.75134 | 127.04186 | 13169 ft | 350 kts | 57° |
| 2026-04-18 10:21 | 25.76385 | 127.06484 | 12935 ft | 349 kts | 57° |
| 2026-04-18 10:21 | 25.77645 | 127.08796 | 12482 ft | 353 kts | 57° |
| 2026-04-18 10:21 | 25.78913 | 127.11129 | 12036 ft | 352 kts | 57° |
| 2026-04-18 10:22 | 25.80169 | 127.13449 | 11632 ft | 349 kts | 57° |
| 2026-04-18 10:22 | 25.81414 | 127.15752 | 11247 ft | 347 kts | 57° |
| 2026-04-18 10:22 | 25.82651 | 127.18037 | 10856 ft | 345 kts | 57° |
| 2026-04-18 10:22 | 25.83884 | 127.20309 | 10469 ft | 343 kts | 57° |
| 2026-04-18 10:23 | 25.85106 | 127.22564 | 10149 ft | 336 kts | 57° |
| 2026-04-18 10:23 | 25.86276 | 127.24732 | 9733 ft | 321 kts | 56° |
| 2026-04-18 10:23 | 25.87409 | 127.26827 | 9338 ft | 312 kts | 56° |
| 2026-04-18 10:23 | 25.88533 | 127.28896 | 9202 ft | 313 kts | 56° |
| 2026-04-18 10:24 | 25.89570 | 127.30998 | 8818 ft | 316 kts | 66° |
| 2026-04-18 10:24 | 25.90208 | 127.33318 | 8451 ft | 312 kts | 75° |
| 2026-04-18 10:24 | 25.90745 | 127.35647 | 7949 ft | 309 kts | 74° |
| 2026-04-18 10:24 | 25.91280 | 127.37934 | 7514 ft | 303 kts | 74° |
| 2026-04-18 10:25 | 25.91810 | 127.40187 | 7088 ft | 299 kts | 74° |
| 2026-04-18 10:25 | 25.92334 | 127.42417 | 6679 ft | 299 kts | 74° |
| 2026-04-18 10:25 | 25.92858 | 127.44657 | 6326 ft | 298 kts | 74° |
| 2026-04-18 10:25 | 25.93377 | 127.46880 | 5904 ft | 297 kts | 74° |
| 2026-04-18 10:26 | 25.93888 | 127.49068 | 5405 ft | 288 kts | 74° |
| 2026-04-18 10:26 | 25.94388 | 127.51220 | 5009 ft | 287 kts | 74° |
| 2026-04-18 10:26 | 25.94891 | 127.53380 | 4599 ft | 290 kts | 74° |
| 2026-04-18 10:26 | 25.95395 | 127.55547 | 4175 ft | 288 kts | 74° |
| 2026-04-18 10:27 | 25.95986 | 127.57639 | 3774 ft | 281 kts | 62° |
| 2026-04-18 10:27 | 25.97040 | 127.59429 | 3390 ft | 274 kts | 44° |
| 2026-04-18 10:27 | 25.98481 | 127.60771 | 3001 ft | 269 kts | 29° |
| 2026-04-18 10:27 | 25.99998 | 127.61880 | 2890 ft | 253 kts | 30° |
| 2026-04-18 10:28 | 26.01430 | 127.62942 | 2795 ft | 242 kts | 30° |
| 2026-04-18 10:28 | 26.02815 | 127.63972 | 2703 ft | 235 kts | 31° |
| 2026-04-18 10:28 | 26.04162 | 127.64911 | 2575 ft | 224 kts | 20° |
| 2026-04-18 10:28 | 26.05639 | 127.65346 | 2426 ft | 218 kts | 2° |
| 2026-04-18 10:29 | 26.07133 | 127.65299 | 2135 ft | 213 kts | 353° |
| 2026-04-18 10:29 | 26.08555 | 127.65214 | 2003 ft | 192 kts | 354° |
| 2026-04-18 10:29 | 26.09800 | 127.65145 | 1988 ft | 166 kts | 355° |
| 2026-04-18 10:29 | 26.10907 | 127.65081 | 1975 ft | 154 kts | 354° |
| 2026-04-18 10:30 | 26.11951 | 127.65019 | 1710 ft | 148 kts | 354° |
| 2026-04-18 10:30 | 26.12964 | 127.64959 | 1333 ft | 143 kts | 354° |
| 2026-04-18 10:30 | 26.13941 | 127.64902 | 1236 ft | 143 kts | 355° |
| 2026-04-18 10:30 | 26.14952 | 127.64835 | 806 ft | 145 kts | 355° |
| 2026-04-18 10:31 | 26.15939 | 127.64778 | 464 ft | 141 kts | 356° |
| 2026-04-18 10:31 | 26.16917 | 127.64718 | 334 ft | 141 kts | 356° |
| 2026-04-18 10:31 | 26.17892 | 127.64660 | 165 ft | 140 kts | 358° |
| 2026-04-18 10:31 | 26.18828 | 127.64624 | 20 ft | 121 kts | 357° |
| 2026-04-18 10:32 | 26.19500 | 127.64592 | 16 ft | 72 kts | 358° |
| 2026-04-18 10:32 | 26.19854 | 127.64574 | 15 ft | 41 kts | 357° |
| 2026-04-18 10:32 | 26.20077 | 127.64565 | 16 ft | 24 kts | 1° |
| 2026-04-18 10:32 | 26.20229 | 127.64592 | 18 ft | 19 kts | 17° |
| 2026-04-18 10:33 | 26.20320 | 127.64635 | 17 ft | 4 kts | 27° |
| 2026-04-18 10:33 | 26.20351 | 127.64653 | 17 ft | 6 kts | 27° |
| 2026-04-18 10:33 | 26.20401 | 127.64682 | 17 ft | 13 kts | 28° |
| 2026-04-18 10:33 | 26.20490 | 127.64734 | 17 ft | 15 kts | 27° |
| 2026-04-18 10:34 | 26.20593 | 127.64747 | 17 ft | 16 kts | 358° |
| 2026-04-18 10:34 | 26.20704 | 127.64741 | 17 ft | 16 kts | 357° |
| 2026-04-18 10:34 | 26.20802 | 127.64736 | 17 ft | 14 kts | 357° |
| 2026-04-18 10:34 | 26.20894 | 127.64758 | 19 ft | 14 kts | 43° |
| 2026-04-18 10:35 | 26.20922 | 127.64853 | 20 ft | 13 kts | 63° |
| 2026-04-18 10:35 | 26.20999 | 127.64885 | 20 ft | 13 kts | 359° |
| 2026-04-18 10:35 | 26.21047 | 127.64883 | 20 ft | 3 kts | 358° |
| 2026-04-18 10:35 | 26.21051 | 127.64883 | 20 ft | 1 kts | 358° |
| 2026-04-18 10:36 | 26.21063 | 127.64882 | 20 ft | 2 kts | 358° |
| 2026-04-18 10:36 | 26.21080 | 127.64882 | 20 ft | 3 kts | 358° |
| 2026-04-18 10:36 | 26.21095 | 127.64892 | 21 ft | 3 kts | 55° |
| 2026-04-18 10:36 | 26.21097 | 127.64924 | 21 ft | 4 kts | 89° |
| 2026-04-18 10:37 | 26.21098 | 127.64949 | 21 ft | 0 kts | 88° |